Time,TemperatureF,DewpointF,PressureIn,WindDirection,WindDirectionDegrees,WindSpeedMPH,WindSpeedGustMPH,Humidity,HourlyPrecipIn,Conditions,Clouds,dailyrainin,SoftwareType,DateUTC
2013-03-24 00:13:00,32.5,21.0,29.74,SSW,211,0.0,-999.0,63,-99.99,,,0.00,weatherlink.com 1.10,2013-03-24 04:13:00,
2013-03-24 00:27:00,31.7,21.0,29.74,West,260,0.0,-999.0,66,-99.99,,,0.00,weatherlink.com 1.10,2013-03-24 04:27:00,
2013-03-24 00:42:00,32.5,21.0,29.74,West,272,0.0,-999.0,64,-99.99,,,0.00,weatherlink.com 1.10,2013-03-24 04:42:00,
2013-03-24 00:57:00,33.0,22.0,29.72,West,266,0.0,-999.0,63,-99.99,,,0.00,weatherlink.com 1.10,2013-03-24 04:57:00,
2013-03-24 01:13:00,33.2,22.0,29.72,West,264,0.0,-999.0,63,-99.99,,,0.00,weatherlink.com 1.10,2013-03-24 05:13:00,
2013-03-24 01:27:00,33.3,22.0,29.73,West,273,0.0,-999.0,63,-99.99,,,0.00,weatherlink.com 1.10,2013-03-24 05:27:00,
2013-03-24 01:43:00,33.3,22.0,29.73,WNW,290,0.0,-999.0,63,-99.99,,,0.00,weatherlink.com 1.10,2013-03-24 05:43:00,
2013-03-24 01:58:00,33.0,22.0,29.74,WNW,287,0.0,-999.0,64,-99.99,,,0.00,weatherlink.com 1.10,2013-03-24 05:58:00,
2013-03-24 02:13:00,32.9,22.0,29.75,WNW,293,0.0,-999.0,64,-99.99,,,0.00,weatherlink.com 1.10,2013-03-24 06:13:00,
2013-03-24 02:28:00,32.0,22.0,29.74,SW,225,0.0,-999.0,66,-99.99,,,0.00,weatherlink.com 1.10,2013-03-24 06:28:00,
2013-03-24 02:45:00,32.4,22.0,29.74,WNW,292,0.0,-999.0,65,-99.99,,,0.00,weatherlink.com 1.10,2013-03-24 06:45:00,
2013-03-24 02:58:00,32.3,22.0,29.74,WSW,254,0.0,-999.0,65,-99.99,,,0.00,weatherlink.com 1.10,2013-03-24 06:58:00,
2013-03-24 03:13:00,32.2,22.0,29.73,WNW,293,0.0,-999.0,66,-99.99,,,0.00,weatherlink.com 1.10,2013-03-24 07:13:00,
2013-03-24 03:28:00,32.3,22.0,29.73,WNW,300,0.0,-999.0,67,-99.99,,,0.00,weatherlink.com 1.10,2013-03-24 07:28:00,
2013-03-24 03:43:00,31.9,22.0,29.73,NW,315,0.0,-999.0,68,-99.99,,,0.00,weatherlink.com 1.10,2013-03-24 07:43:00,
2013-03-24 03:58:00,32.2,23.0,29.73,WNW,285,0.0,-999.0,68,-99.99,,,0.00,weatherlink.com 1.10,2013-03-24 07:58:00,
2013-03-24 04:13:00,32.4,23.0,29.73,NW,309,0.0,-999.0,67,-99.99,,,0.00,weatherlink.com 1.10,2013-03-24 08:13:00,
2013-03-24 04:28:00,32.7,23.0,29.72,WNW,286,0.0,-999.0,67,-99.99,,,0.00,weatherlink.com 1.10,2013-03-24 08:28:00,
2013-03-24 04:45:00,32.4,23.0,29.72,WNW,284,0.0,-999.0,68,-99.99,,,0.00,weatherlink.com 1.10,2013-03-24 08:45:00,
2013-03-24 04:58:00,32.2,23.0,29.72,NW,311,0.0,-999.0,69,-99.99,,,0.00,weatherlink.com 1.10,2013-03-24 08:58:00,
2013-03-24 05:13:00,32.4,23.0,29.73,West,281,0.0,-999.0,68,-99.99,,,0.00,weatherlink.com 1.10,2013-03-24 09:13:00,
2013-03-24 05:28:00,32.2,23.0,29.74,West,273,0.0,-999.0,68,-99.99,,,0.00,weatherlink.com 1.10,2013-03-24 09:28:00,
2013-03-24 05:43:00,32.1,23.0,29.73,West,279,0.0,-999.0,69,-99.99,,,0.00,weatherlink.com 1.10,2013-03-24 09:43:00,
2013-03-24 05:58:00,32.1,23.0,29.73,West,270,0.0,-999.0,69,-99.99,,,0.00,weatherlink.com 1.10,2013-03-24 09:58:00,
2013-03-24 06:13:00,32.0,23.0,29.74,WNW,290,0.0,-999.0,69,-99.99,,,0.00,weatherlink.com 1.10,2013-03-24 10:13:00,
2013-03-24 06:28:00,31.5,23.0,29.76,WNW,291,0.0,-999.0,70,-99.99,,,0.00,weatherlink.com 1.10,2013-03-24 10:28:00,
2013-03-24 06:43:00,30.2,23.0,29.77,WNW,284,0.0,-999.0,73,-99.99,,,0.00,weatherlink.com 1.10,2013-03-24 10:43:00,
2013-03-24 06:58:00,31.1,23.0,29.77,WNW,284,0.0,-999.0,71,-99.99,,,0.00,weatherlink.com 1.10,2013-03-24 10:58:00,
2013-03-24 07:13:00,30.9,23.0,29.77,NW,309,0.0,-999.0,72,-99.99,,,0.00,weatherlink.com 1.10,2013-03-24 11:13:00,
2013-03-24 07:28:00,31.1,23.0,29.77,WNW,286,0.0,-999.0,72,-99.99,,,0.00,weatherlink.com 1.10,2013-03-24 11:28:00,
2013-03-24 07:43:00,32.8,23.0,29.77,WNW,283,0.0,-999.0,68,-99.99,,,0.00,weatherlink.com 1.10,2013-03-24 11:43:00,
2013-03-24 07:58:00,33.4,23.0,29.77,WSW,257,0.0,-999.0,67,-99.99,,,0.00,weatherlink.com 1.10,2013-03-24 11:58:00,
2013-03-24 08:13:00,34.5,24.0,29.77,WNW,290,0.0,-999.0,65,-99.99,,,0.00,weatherlink.com 1.10,2013-03-24 12:13:00,
2013-03-24 08:28:00,35.5,24.0,29.77,WSW,257,0.0,-999.0,63,-99.99,,,0.00,weatherlink.com 1.10,2013-03-24 12:28:00,
2013-03-24 08:43:00,36.6,24.0,29.76,NNW,332,0.0,-999.0,61,-99.99,,,0.00,weatherlink.com 1.10,2013-03-24 12:43:00,
2013-03-24 08:58:00,37.3,24.0,29.76,North,360,0.0,-999.0,60,-99.99,,,0.00,weatherlink.com 1.10,2013-03-24 12:58:00,
2013-03-24 09:13:00,38.1,24.0,29.76,NW,313,0.0,-999.0,58,-99.99,,,0.00,weatherlink.com 1.10,2013-03-24 13:13:00,
2013-03-24 09:28:00,38.9,24.0,29.76,North,349,0.0,-999.0,56,-99.99,,,0.00,weatherlink.com 1.10,2013-03-24 13:28:00,
2013-03-24 09:43:00,39.7,25.0,29.76,NW,319,0.0,-999.0,56,-99.99,,,0.00,weatherlink.com 1.10,2013-03-24 13:43:00,
2013-03-24 10:13:00,40.3,25.0,29.77,NNW,340,0.0,-999.0,54,-99.99,,,0.00,weatherlink.com 1.10,2013-03-24 14:13:00,
2013-03-24 10:28:00,40.8,24.0,29.77,West,272,0.0,-999.0,52,-99.99,,,0.00,weatherlink.com 1.10,2013-03-24 14:28:00,
2013-03-24 10:43:00,41.2,25.0,29.77,WNW,291,0.0,-999.0,52,-99.99,,,0.00,weatherlink.com 1.10,2013-03-24 14:43:00,
2013-03-24 10:58:00,41.1,25.0,29.77,WNW,292,0.0,-999.0,54,-99.99,,,0.00,weatherlink.com 1.10,2013-03-24 14:58:00,
2013-03-24 11:13:00,41.6,25.0,29.76,NNE,17,0.0,-999.0,51,-99.99,,,0.00,weatherlink.com 1.10,2013-03-24 15:13:00,
2013-03-24 11:28:00,42.8,25.0,29.77,NNW,339,0.0,-999.0,49,-99.99,,,0.00,weatherlink.com 1.10,2013-03-24 15:28:00,
2013-03-24 11:43:00,41.6,25.0,29.76,North,5,0.0,-999.0,51,-99.99,,,0.00,weatherlink.com 1.10,2013-03-24 15:43:00,
2013-03-24 11:58:00,42.6,24.0,29.77,NW,317,0.0,-999.0,48,-99.99,,,0.00,weatherlink.com 1.10,2013-03-24 15:58:00,
2013-03-24 12:13:00,42.6,25.0,29.76,NW,307,0.0,-999.0,50,-99.99,,,0.00,weatherlink.com 1.10,2013-03-24 16:13:00,
2013-03-24 12:28:00,42.5,24.0,29.76,NNW,331,0.0,-999.0,48,-99.99,,,0.00,weatherlink.com 1.10,2013-03-24 16:28:00,
2013-03-24 12:43:00,42.7,24.0,29.76,WNW,286,0.0,-999.0,48,-99.99,,,0.00,weatherlink.com 1.10,2013-03-24 16:43:00,
2013-03-24 12:58:00,43.0,25.0,29.77,West,265,0.0,-999.0,49,-99.99,,,0.00,weatherlink.com 1.10,2013-03-24 16:58:00,
2013-03-24 13:13:00,42.4,24.0,29.75,NW,317,0.0,-999.0,49,-99.99,,,0.00,weatherlink.com 1.10,2013-03-24 17:13:00,
2013-03-24 13:28:00,43.6,25.0,29.75,North,355,0.0,-999.0,48,-99.99,,,0.00,weatherlink.com 1.10,2013-03-24 17:28:00,
2013-03-24 13:43:00,43.4,24.0,29.74,West,267,0.0,-999.0,47,-99.99,,,0.00,weatherlink.com 1.10,2013-03-24 17:43:00,
2013-03-24 13:58:00,43.3,26.0,29.73,NE,37,0.0,-999.0,50,-99.99,,,0.00,weatherlink.com 1.10,2013-03-24 17:58:00,
2013-03-24 14:13:00,43.8,25.0,29.73,North,10,0.0,-999.0,48,-99.99,,,0.00,weatherlink.com 1.10,2013-03-24 18:13:00,
2013-03-24 14:28:00,44.3,25.0,29.74,NNE,23,0.0,-999.0,47,-99.99,,,0.00,weatherlink.com 1.10,2013-03-24 18:28:00,
2013-03-24 14:43:00,44.0,25.0,29.73,North,5,0.0,-999.0,48,-99.99,,,0.00,weatherlink.com 1.10,2013-03-24 18:43:00,
2013-03-24 14:58:00,45.2,25.0,29.72,NNE,19,0.0,-999.0,46,-99.99,,,0.00,weatherlink.com 1.10,2013-03-24 18:58:00,
2013-03-24 15:13:00,44.9,25.0,29.71,NW,326,0.0,-999.0,46,-99.99,,,0.00,weatherlink.com 1.10,2013-03-24 19:13:00,
2013-03-24 15:28:00,45.1,25.0,29.71,North,5,0.0,-999.0,46,-99.99,,,0.00,weatherlink.com 1.10,2013-03-24 19:28:00,
2013-03-24 15:43:00,44.4,25.0,29.70,NNE,14,0.0,-999.0,47,-99.99,,,0.00,weatherlink.com 1.10,2013-03-24 19:43:00,
2013-03-24 15:58:00,44.8,25.0,29.70,North,5,0.0,-999.0,47,-99.99,,,0.00,weatherlink.com 1.10,2013-03-24 19:58:00,
2013-03-24 16:13:00,44.8,26.0,29.70,NW,324,0.0,-999.0,48,-99.99,,,0.00,weatherlink.com 1.10,2013-03-24 20:13:00,
2013-03-24 16:28:00,44.7,26.0,29.70,NNW,344,0.0,-999.0,48,-99.99,,,0.00,weatherlink.com 1.10,2013-03-24 20:28:00,
2013-03-24 16:43:00,44.4,26.0,29.69,NNE,25,0.0,-999.0,49,-99.99,,,0.00,weatherlink.com 1.10,2013-03-24 20:43:00,
2013-03-24 16:58:00,44.3,25.0,29.70,NNW,342,0.0,-999.0,47,-99.99,,,0.00,weatherlink.com 1.10,2013-03-24 20:58:00,
2013-03-24 17:13:00,44.5,24.0,29.70,NNW,331,0.0,-999.0,45,-99.99,,,0.00,weatherlink.com 1.10,2013-03-24 21:13:00,
2013-03-24 17:28:00,44.2,25.0,29.70,North,5,0.0,-999.0,47,-99.99,,,0.00,weatherlink.com 1.10,2013-03-24 21:28:00,
2013-03-24 17:43:00,44.1,25.0,29.70,NNE,13,0.0,-999.0,47,-99.99,,,0.00,weatherlink.com 1.10,2013-03-24 21:43:00,
2013-03-24 17:58:00,43.7,25.0,29.70,NNW,339,0.0,-999.0,48,-99.99,,,0.00,weatherlink.com 1.10,2013-03-24 21:58:00,
2013-03-24 18:13:00,43.2,25.0,29.71,NNW,336,0.0,-999.0,49,-99.99,,,0.00,weatherlink.com 1.10,2013-03-24 22:13:00,
2013-03-24 18:28:00,42.9,25.0,29.71,NW,321,0.0,-999.0,50,-99.99,,,0.00,weatherlink.com 1.10,2013-03-24 22:28:00,
2013-03-24 18:43:00,42.3,25.0,29.72,NNW,338,0.0,-999.0,50,-99.99,,,0.00,weatherlink.com 1.10,2013-03-24 22:43:00,
2013-03-24 18:58:00,40.4,27.0,29.72,NW,318,0.0,-999.0,60,-99.99,,,0.00,weatherlink.com 1.10,2013-03-24 22:58:00,
2013-03-24 19:13:00,38.4,26.0,29.71,NW,318,0.0,-999.0,62,-99.99,,,0.00,weatherlink.com 1.10,2013-03-24 23:13:00,
2013-03-24 19:28:00,36.3,26.0,29.72,NW,318,0.0,-999.0,66,-99.99,,,0.00,weatherlink.com 1.10,2013-03-24 23:28:00,
2013-03-24 19:43:00,34.3,27.0,29.72,NW,318,0.0,-999.0,76,-99.99,,,0.00,weatherlink.com 1.10,2013-03-24 23:43:00,
2013-03-24 19:58:00,33.4,28.0,29.72,NW,318,0.0,-999.0,80,-99.99,,,0.00,weatherlink.com 1.10,2013-03-24 23:58:00,
2013-03-24 20:13:00,32.9,26.0,29.72,NW,318,0.0,-999.0,77,-99.99,,,0.00,weatherlink.com 1.10,2013-03-25 00:13:00,
2013-03-24 20:28:00,32.0,27.0,29.72,NW,318,0.0,-999.0,80,-99.99,,,0.00,weatherlink.com 1.10,2013-03-25 00:28:00,
2013-03-24 20:43:00,31.6,26.0,29.72,NW,318,0.0,-999.0,79,-99.99,,,0.00,weatherlink.com 1.10,2013-03-25 00:43:00,
2013-03-24 20:58:00,30.7,25.0,29.73,NW,318,0.0,-999.0,80,-99.99,,,0.00,weatherlink.com 1.10,2013-03-25 00:58:00,
2013-03-24 21:13:00,30.2,25.0,29.73,NW,318,0.0,-999.0,80,-99.99,,,0.00,weatherlink.com 1.10,2013-03-25 01:13:00,
2013-03-24 21:28:00,30.1,25.0,29.75,NW,318,0.0,-999.0,82,-99.99,,,0.00,weatherlink.com 1.10,2013-03-25 01:28:00,
2013-03-24 21:43:00,30.1,25.0,29.75,NW,319,0.0,-999.0,82,-99.99,,,0.00,weatherlink.com 1.10,2013-03-25 01:43:00,
2013-03-24 21:58:00,29.9,26.0,29.75,NW,322,0.0,-999.0,84,-99.99,,,0.00,weatherlink.com 1.10,2013-03-25 01:58:00,
2013-03-24 22:13:00,29.9,26.0,29.75,NW,322,0.0,-999.0,85,-99.99,,,0.00,weatherlink.com 1.10,2013-03-25 02:13:00,
2013-03-24 22:28:00,29.8,26.0,29.76,NW,322,0.0,-999.0,85,-99.99,,,0.00,weatherlink.com 1.10,2013-03-25 02:28:00,
2013-03-24 22:43:00,29.8,26.0,29.75,NW,322,0.0,-999.0,86,-99.99,,,0.00,weatherlink.com 1.10,2013-03-25 02:43:00,
2013-03-24 22:58:00,29.8,26.0,29.74,NW,322,0.0,-999.0,87,-99.99,,,0.00,weatherlink.com 1.10,2013-03-25 02:58:00,
2013-03-24 23:13:00,29.5,26.0,29.74,NW,322,0.0,-999.0,88,-99.99,,,0.00,weatherlink.com 1.10,2013-03-25 03:13:00,
2013-03-24 23:28:00,29.8,26.0,29.74,NW,322,0.0,-999.0,87,-99.99,,,0.00,weatherlink.com 1.10,2013-03-25 03:28:00,
2013-03-24 23:43:00,30.3,27.0,29.75,NW,321,0.0,-999.0,86,-99.99,,,0.00,weatherlink.com 1.10,2013-03-25 03:43:00,
2013-03-24 23:58:00,30.8,27.0,29.74,NW,322,0.0,-999.0,87,-99.99,,,0.00,weatherlink.com 1.10,2013-03-25 03:58:00,